createdAt,value
2019-01-02T00:02:19.743Z,3.33
2019-01-02T00:04:48.116Z,3.27
2019-01-02T00:07:16.098Z,2.77
2019-01-02T00:09:43.827Z,3.03
2019-01-02T00:12:11.469Z,3.40
2019-01-02T00:14:38.724Z,2.80
2019-01-02T00:17:06.488Z,2.97
2019-01-02T00:19:33.649Z,3.43
2019-01-02T00:22:01.629Z,4.10
2019-01-02T00:24:29.189Z,3.00
2019-01-02T00:26:56.730Z,2.70
2019-01-02T00:29:25.068Z,3.97
2019-01-02T00:31:52.557Z,2.83
2019-01-02T00:34:20.895Z,3.30
2019-01-02T00:36:48.278Z,2.80
2019-01-02T00:39:15.985Z,2.47
2019-01-02T00:41:43.098Z,2.83
2019-01-02T00:44:10.909Z,2.70
2019-01-02T00:46:38.391Z,2.90
2019-01-02T00:49:06.557Z,2.67
2019-01-02T00:51:34.631Z,3.07
2019-01-02T00:54:02.353Z,4.27
2019-01-02T00:56:29.731Z,3.30
2019-01-02T00:58:57.836Z,3.50
2019-01-02T01:01:25.313Z,3.23
2019-01-02T01:03:52.854Z,3.20
2019-01-02T01:06:20.901Z,3.40
2019-01-02T01:08:48.610Z,3.20
2019-01-02T01:11:15.844Z,2.80
2019-01-02T01:13:43.360Z,2.63
2019-01-02T01:16:11.101Z,3.93
2019-01-02T01:18:39.547Z,4.10
2019-01-02T01:21:07.089Z,4.57
2019-01-02T01:23:34.637Z,3.43
2019-01-02T01:26:02.312Z,3.47
2019-01-02T01:28:29.973Z,3.13
2019-01-02T01:30:57.958Z,4.10
2019-01-02T01:33:25.407Z,3.47
2019-01-02T01:35:52.973Z,3.50
2019-01-02T01:38:20.816Z,3.30
2019-01-02T01:40:48.986Z,3.33
2019-01-02T01:43:16.795Z,3.40
2019-01-02T01:45:44.148Z,3.07
2019-01-02T01:48:11.768Z,3.00
2019-01-02T01:50:39.674Z,3.33
2019-01-02T01:53:08.062Z,3.43
2019-01-02T01:55:35.792Z,4.20
2019-01-02T01:58:03.415Z,3.33
2019-01-02T02:00:31.644Z,3.87
2019-01-02T02:02:58.733Z,3.00
2019-01-02T02:05:26.557Z,2.77
2019-01-02T02:07:54.390Z,3.23
2019-01-02T02:10:22.158Z,2.77
2019-01-02T02:12:49.409Z,3.23
2019-01-02T02:15:16.762Z,2.77
2019-01-02T02:17:44.942Z,3.07
2019-01-02T02:20:13.455Z,3.20
2019-01-02T02:22:41.327Z,3.27
2019-01-02T02:25:15.461Z,3.23
2019-01-02T02:27:43.797Z,3.03
2019-01-02T02:30:12.029Z,3.20
2019-01-02T02:32:39.935Z,3.40
2019-01-02T02:35:08.487Z,3.63
2019-01-02T02:37:36.421Z,3.60
2019-01-02T02:40:04.664Z,4.13
2019-01-02T02:42:32.788Z,3.63
2019-01-02T02:45:00.689Z,4.00
2019-01-02T02:47:28.653Z,3.00
2019-01-02T02:49:56.465Z,4.13
2019-01-02T02:52:24.081Z,3.60
2019-01-02T02:54:54.741Z,3.00
2019-01-02T02:57:24.568Z,3.67
2019-01-02T02:59:54.325Z,3.80
2019-01-02T03:02:22.104Z,3.67
2019-01-02T03:04:49.616Z,4.50
2019-01-02T03:07:18.418Z,3.90
2019-01-02T03:09:46.284Z,3.77
2019-01-02T03:12:13.692Z,4.33
2019-01-02T03:14:41.258Z,3.80
2019-01-02T03:17:08.626Z,3.10
2019-01-02T03:19:36.279Z,3.27
2019-01-02T03:22:04.083Z,3.70
2019-01-02T03:24:31.862Z,4.07
2019-01-02T03:26:59.992Z,4.07
2019-01-02T03:29:27.136Z,3.83
2019-01-02T03:31:54.960Z,3.47
2019-01-02T03:34:23.176Z,2.70
2019-01-02T03:36:50.488Z,3.57
2019-01-02T03:39:18.572Z,3.70
2019-01-02T03:41:46.689Z,3.97
2019-01-02T03:44:14.312Z,3.80
2019-01-02T03:46:41.581Z,3.87
2019-01-02T03:49:08.926Z,4.50
2019-01-02T03:51:36.954Z,4.00
2019-01-02T03:54:04.591Z,3.97
2019-01-02T03:56:32.363Z,4.07
2019-01-02T03:59:00.239Z,3.80
2019-01-02T04:01:28.109Z,3.87
2019-01-02T04:03:55.714Z,2.87
2019-01-02T04:06:23.096Z,3.53
2019-01-02T04:08:50.834Z,3.40
2019-01-02T04:11:18.657Z,3.80
2019-01-02T04:13:46.058Z,4.43
2019-01-02T04:16:13.969Z,3.50
2019-01-02T04:18:41.910Z,3.80
2019-01-02T04:21:09.471Z,3.17
2019-01-02T04:23:37.349Z,4.20
2019-01-02T04:26:04.596Z,3.73
2019-01-02T04:28:32.376Z,3.63
2019-01-02T04:30:59.650Z,4.27
2019-01-02T04:33:27.639Z,3.30
2019-01-02T04:35:54.861Z,3.27
2019-01-02T04:38:22.629Z,4.73
2019-01-02T04:40:50.117Z,4.00
2019-01-02T04:43:17.489Z,3.10
2019-01-02T04:45:45.011Z,3.87
2019-01-02T04:48:12.405Z,3.00
2019-01-02T04:50:39.673Z,4.07
2019-01-02T04:53:06.914Z,3.63
2019-01-02T04:55:34.420Z,3.27
2019-01-02T04:58:02.138Z,3.50
2019-01-02T05:00:30.267Z,3.47
2019-01-02T05:02:58.044Z,3.50
2019-01-02T05:05:25.562Z,3.63
2019-01-02T05:07:52.692Z,3.87
2019-01-02T05:10:20.623Z,3.40
2019-01-02T05:12:48.033Z,3.60
2019-01-02T05:15:15.265Z,3.80
2019-01-02T05:17:43.312Z,3.97
2019-01-02T05:20:14.040Z,4.20
2019-01-02T05:22:41.888Z,3.50
2019-01-02T05:25:09.042Z,3.63
2019-01-02T05:27:36.548Z,4.17
2019-01-02T05:30:08.666Z,4.03
2019-01-02T05:32:36.345Z,4.73
2019-01-02T05:35:04.793Z,4.13
2019-01-02T05:37:32.446Z,3.90
2019-01-02T05:40:00.429Z,3.80
2019-01-02T05:42:28.134Z,4.43
2019-01-02T05:44:55.854Z,3.67
2019-01-02T05:47:23.389Z,3.80
2019-01-02T05:49:51.312Z,3.63
2019-01-02T05:52:18.749Z,3.50
2019-01-02T05:54:46.538Z,3.40
2019-01-02T05:57:13.788Z,3.23
2019-01-02T05:59:41.452Z,3.30
2019-01-02T06:02:08.824Z,3.63
2019-01-02T06:04:36.460Z,3.13
2019-01-02T06:07:04.399Z,4.07
2019-01-02T06:09:31.682Z,3.87
2019-01-02T06:11:58.883Z,4.37
2019-01-02T06:14:26.567Z,4.03
2019-01-02T06:16:54.140Z,4.43
2019-01-02T06:19:21.843Z,4.07
2019-01-02T06:21:49.247Z,4.00
2019-01-02T06:24:16.804Z,4.03
2019-01-02T06:26:47.924Z,3.43
2019-01-02T06:29:16.285Z,4.37
2019-01-02T06:31:43.928Z,4.67
2019-01-02T06:34:11.519Z,3.67
2019-01-02T06:36:39.807Z,4.90
2019-01-02T06:39:08.446Z,4.20
2019-01-02T06:41:36.040Z,4.00
2019-01-02T06:44:03.633Z,4.13
2019-01-02T06:46:31.553Z,4.57
2019-01-02T06:48:59.427Z,4.90
2019-01-02T06:51:26.888Z,5.80
2019-01-02T06:53:54.534Z,3.97
2019-01-02T06:56:22.019Z,4.27
2019-01-02T06:58:50.347Z,4.67
2019-01-02T07:01:18.386Z,4.30
2019-01-02T07:03:45.982Z,4.50
2019-01-02T07:06:14.157Z,4.37
2019-01-02T07:08:41.734Z,5.00
2019-01-02T07:11:09.272Z,4.63
2019-01-02T07:13:36.750Z,4.33
2019-01-02T07:16:04.400Z,5.13
2019-01-02T07:18:31.788Z,4.57
2019-01-02T07:20:59.558Z,4.47
2019-01-02T07:23:27.329Z,6.23
2019-01-02T07:25:54.724Z,5.40
2019-01-02T07:28:22.445Z,5.03
2019-01-02T07:30:49.983Z,5.07
2019-01-02T07:33:19.603Z,4.70
2019-01-02T07:36:31.578Z,4.87
2019-01-02T07:40:11.546Z,5.17
2019-01-02T07:43:28.737Z,5.83
2019-01-02T07:46:55.240Z,4.83
2019-01-02T07:49:54.586Z,3.70
2019-01-02T07:53:03.213Z,3.20
2019-01-02T07:56:28.001Z,5.13
2019-01-02T07:59:34.700Z,5.07
2019-01-02T08:03:15.530Z,4.50
2019-01-02T08:06:27.651Z,4.93
2019-01-02T08:10:05.847Z,5.40
2019-01-02T08:13:26.972Z,4.10
2019-01-02T08:16:39.329Z,4.63
2019-01-02T08:19:34.831Z,3.50
2019-01-02T08:23:12.245Z,4.03
2019-01-02T08:27:05.311Z,3.47
2019-01-02T08:30:36.809Z,3.30
2019-01-02T08:33:58.492Z,4.17
2019-01-02T08:36:54.405Z,4.73
2019-01-02T08:39:49.528Z,4.60
2019-01-02T08:43:07.922Z,5.47
2019-01-02T08:46:46.218Z,6.27
2019-01-02T08:50:09.499Z,4.77
2019-01-02T08:53:08.240Z,6.90
2019-01-02T08:56:40.592Z,6.33
2019-01-02T08:59:44.485Z,6.93
2019-01-02T09:02:59.549Z,6.67
2019-01-02T09:05:55.676Z,6.23
2019-01-02T09:09:13.582Z,4.87
2019-01-02T09:12:13.236Z,5.70
2019-01-02T09:15:23.176Z,5.37
2019-01-02T09:18:49.922Z,5.47
2019-01-02T09:21:54.651Z,5.20
2019-01-02T09:25:07.784Z,4.47
2019-01-02T09:28:41.158Z,4.93
2019-01-02T09:32:17.069Z,4.73
2019-01-02T09:35:43.655Z,4.80
2019-01-02T09:38:49.234Z,4.07
2019-01-02T09:41:58.595Z,5.20
2019-01-02T09:45:22.146Z,4.33
2019-01-02T09:48:28.257Z,4.13
2019-01-02T09:51:51.931Z,3.57
2019-01-02T09:55:26.171Z,4.00
2019-01-02T09:58:51.314Z,3.77
2019-01-02T10:02:20.205Z,3.23
2019-01-02T10:05:43.024Z,3.90
2019-01-02T10:09:12.649Z,3.73
2019-01-02T10:12:22.284Z,3.80
2019-01-02T10:15:29.451Z,4.23
2019-01-02T10:18:52.529Z,3.53
2019-01-02T10:22:23.587Z,6.40
2019-01-02T10:25:50.997Z,4.13
2019-01-02T10:28:51.653Z,4.43
2019-01-02T10:32:57.088Z,4.50
2019-01-02T10:36:44.060Z,4.90
2019-01-02T10:40:28.100Z,5.60
2019-01-02T10:43:45.058Z,5.10
2019-01-02T10:46:55.144Z,5.37
2019-01-02T10:50:13.980Z,5.10
2019-01-02T10:53:55.385Z,4.23
2019-01-02T10:57:42.343Z,5.00
2019-01-02T11:01:09.295Z,3.97
2019-01-02T11:04:52.451Z,4.83
2019-01-02T11:08:06.718Z,4.73
2019-01-02T11:11:25.875Z,5.23
2019-01-02T11:15:07.151Z,4.00
2019-01-02T11:18:41.396Z,4.23
2019-01-02T11:22:21.602Z,3.67
2019-01-02T11:25:36.083Z,3.40
2019-01-02T11:29:04.505Z,3.47
2019-01-02T11:32:44.080Z,3.70
2019-01-02T11:36:06.554Z,3.00
2019-01-02T11:39:24.851Z,3.90
2019-01-02T11:42:56.041Z,4.60
2019-01-02T11:45:24.584Z,3.50
2019-01-02T11:47:52.265Z,3.73
2019-01-02T11:50:19.917Z,4.10
2019-01-02T11:52:47.683Z,3.37
2019-01-02T11:55:15.780Z,2.83
2019-01-02T11:57:43.368Z,2.97
2019-01-02T12:00:14.929Z,2.40
2019-01-02T12:02:42.389Z,3.10
2019-01-02T12:05:10.735Z,3.30
2019-01-02T12:07:37.966Z,2.80
2019-01-02T12:10:09.370Z,4.00
2019-01-02T12:12:37.422Z,2.70
2019-01-02T12:15:06.972Z,3.20
2019-01-02T12:17:34.605Z,2.57
2019-01-02T12:20:02.166Z,2.70
2019-01-02T12:22:31.058Z,2.53
2019-01-02T12:24:58.323Z,2.77
2019-01-02T12:27:25.871Z,2.80
2019-01-02T12:29:53.161Z,2.43
2019-01-02T12:32:20.953Z,2.17
2019-01-02T12:34:48.452Z,2.73
2019-01-02T12:37:15.583Z,2.30
2019-01-02T12:39:43.610Z,2.87
2019-01-02T12:42:10.856Z,2.10
2019-01-02T12:44:38.686Z,2.53
2019-01-02T12:47:06.116Z,2.13
2019-01-02T12:49:33.461Z,2.10
2019-01-02T12:52:01.387Z,2.20
2019-01-02T12:54:28.506Z,2.60
2019-01-02T12:56:56.079Z,2.67
2019-01-02T12:59:27.142Z,2.63
2019-01-02T13:03:07.109Z,1.70
2019-01-02T13:06:40.807Z,2.20
2019-01-02T13:09:27.374Z,1.70
2019-01-02T13:12:56.803Z,1.30
2019-01-02T13:15:47.980Z,1.63
2019-01-02T13:19:12.067Z,1.87
2019-01-02T13:22:43.050Z,1.70
2019-01-02T13:25:24.408Z,1.90
2019-01-02T13:28:30.252Z,1.70
2019-01-02T13:31:44.357Z,1.73
2019-01-02T13:35:29.566Z,1.57
2019-01-02T13:38:17.325Z,1.37
2019-01-02T13:41:33.882Z,1.30
2019-01-02T13:44:33.919Z,1.67
2019-01-02T13:47:56.558Z,1.57
2019-01-02T13:51:00.546Z,1.50
2019-01-02T13:53:28.174Z,1.70
2019-01-02T13:55:56.693Z,1.47
2019-01-02T13:58:24.525Z,1.07
2019-01-02T14:00:51.742Z,1.37
2019-01-02T14:03:19.131Z,1.63
2019-01-02T14:05:49.491Z,1.67
2019-01-02T14:08:17.353Z,1.40
2019-01-02T14:10:44.500Z,1.43
2019-01-02T14:13:12.179Z,2.10
2019-01-02T14:15:40.252Z,1.70
2019-01-02T14:18:08.328Z,1.50
2019-01-02T14:20:37.319Z,1.50
2019-01-02T14:23:04.870Z,1.67
2019-01-02T14:25:32.806Z,1.67
2019-01-02T14:28:01.233Z,1.13
2019-01-02T14:30:28.777Z,1.83
2019-01-02T14:32:56.530Z,1.40
2019-01-02T14:35:24.918Z,1.70
2019-01-02T14:37:52.913Z,1.53
2019-01-02T14:40:24.278Z,1.85
2019-01-02T14:42:52.130Z,2.00
2019-01-02T14:45:19.692Z,1.37
2019-01-02T14:47:46.885Z,1.40
2019-01-02T14:50:14.400Z,1.40
2019-01-02T14:52:43.341Z,1.60
2019-01-02T14:55:11.029Z,1.47
2019-01-02T14:57:38.432Z,2.17
2019-01-02T15:00:11.093Z,2.20
2019-01-02T15:02:38.925Z,1.20
2019-01-02T15:05:06.800Z,1.63
2019-01-02T15:07:34.314Z,1.53
2019-01-02T15:10:01.593Z,1.40
2019-01-02T15:12:29.227Z,1.40
2019-01-02T15:14:56.857Z,1.47
2019-01-02T15:17:25.260Z,1.77
2019-01-02T15:19:53.177Z,1.67
2019-01-02T15:22:20.876Z,1.50
2019-01-02T15:24:49.534Z,1.40
2019-01-02T15:27:17.098Z,1.33
2019-01-02T15:29:44.227Z,1.63
2019-01-02T15:32:11.709Z,1.37
2019-01-02T15:34:39.385Z,1.73
2019-01-02T15:37:07.156Z,1.50
2019-01-02T15:39:34.784Z,1.33
2019-01-02T15:42:02.124Z,1.20
2019-01-02T15:44:29.406Z,1.33
2019-01-02T15:46:57.027Z,1.23
2019-01-02T15:49:24.641Z,1.80
2019-01-02T15:51:52.744Z,1.30
2019-01-02T15:54:20.222Z,1.60
2019-01-02T15:56:48.299Z,1.40
2019-01-02T15:59:15.382Z,1.73
2019-01-02T16:01:42.522Z,1.70
2019-01-02T16:04:10.041Z,1.70
2019-01-02T16:06:37.784Z,1.27
2019-01-02T16:09:07.169Z,1.30
2019-01-02T16:11:34.965Z,1.60
2019-01-02T16:14:03.125Z,1.37
2019-01-02T16:16:30.641Z,1.37
2019-01-02T16:18:58.209Z,2.30
2019-01-02T16:21:25.398Z,1.63
2019-01-02T16:23:52.881Z,1.93
2019-01-02T16:26:20.066Z,1.63
2019-01-02T16:28:47.639Z,1.30
2019-01-02T16:31:15.128Z,1.20
2019-01-02T16:33:42.269Z,1.53
2019-01-02T16:36:10.058Z,1.67
2019-01-02T16:38:38.287Z,1.67
2019-01-02T16:41:05.858Z,1.77
2019-01-02T16:43:33.828Z,2.30
2019-01-02T16:46:01.360Z,1.90
2019-01-02T16:48:29.109Z,2.10
2019-01-02T16:50:57.349Z,1.90
2019-01-02T16:53:24.496Z,1.83
2019-01-02T16:55:52.375Z,1.40
2019-01-02T16:58:20.334Z,2.10
2019-01-02T17:00:47.682Z,1.70
2019-01-02T17:03:15.347Z,1.57
2019-01-02T17:05:42.881Z,1.60
2019-01-02T17:08:10.586Z,1.87
2019-01-02T17:10:38.232Z,1.83
2019-01-02T17:13:05.522Z,2.00
2019-01-02T17:15:33.044Z,1.80
2019-01-02T17:18:00.814Z,1.70
2019-01-02T17:20:29.457Z,2.20
2019-01-02T17:22:56.697Z,2.50
2019-01-02T17:25:24.007Z,1.73
2019-01-02T17:27:52.047Z,1.70
2019-01-02T17:30:21.546Z,2.20
2019-01-02T17:32:49.285Z,2.50
2019-01-02T17:35:16.844Z,2.00
2019-01-02T17:37:43.994Z,2.00
2019-01-02T17:40:11.857Z,1.40
2019-01-02T17:42:39.430Z,1.60
2019-01-02T17:45:08.632Z,2.17
2019-01-02T17:47:36.284Z,1.60
2019-01-02T17:50:04.279Z,1.40
2019-01-02T17:52:31.412Z,2.03
2019-01-02T17:54:58.888Z,1.43
2019-01-02T17:57:26.668Z,1.63
2019-01-02T17:59:54.255Z,1.60
2019-01-02T18:02:21.426Z,1.63
2019-01-02T18:04:48.570Z,1.87
2019-01-02T18:07:16.399Z,2.27
2019-01-02T18:09:44.184Z,2.10
2019-01-02T18:12:11.801Z,1.80
2019-01-02T18:14:39.833Z,2.20
2019-01-02T18:17:07.236Z,1.73
2019-01-02T18:19:34.670Z,1.57
2019-01-02T18:22:02.634Z,1.60
2019-01-02T18:24:29.775Z,1.87
2019-01-02T18:26:57.448Z,1.47
2019-01-02T18:29:24.888Z,1.93
2019-01-02T18:31:53.015Z,1.77
2019-01-02T18:34:20.199Z,2.43
2019-01-02T18:36:47.882Z,1.77
2019-01-02T18:39:15.686Z,1.60
2019-01-02T18:41:42.841Z,2.03
2019-01-02T18:44:10.253Z,2.90
2019-01-02T18:46:37.412Z,1.60
2019-01-02T18:49:05.022Z,2.20
2019-01-02T18:51:32.299Z,1.57
2019-01-02T18:53:59.999Z,1.60
2019-01-02T18:56:27.287Z,1.40
2019-01-02T18:58:54.442Z,2.03
2019-01-02T19:01:22.005Z,1.50
2019-01-02T19:03:49.452Z,1.83
2019-01-02T19:06:17.522Z,2.70
2019-01-02T19:08:44.862Z,2.33
2019-01-02T19:11:12.496Z,2.37
2019-01-02T19:13:39.966Z,2.07
2019-01-02T19:16:07.668Z,1.80
2019-01-02T19:18:35.659Z,1.63
2019-01-02T19:21:03.815Z,2.40
2019-01-02T19:23:31.065Z,2.00
2019-01-02T19:25:58.349Z,1.83
2019-01-02T19:28:25.932Z,2.43
2019-01-02T19:30:53.544Z,1.90
2019-01-02T19:33:21.050Z,2.20
2019-01-02T19:35:50.790Z,2.17
2019-01-02T19:38:18.832Z,2.50
2019-01-02T19:40:47.535Z,2.00
2019-01-02T19:43:15.307Z,2.57
2019-01-02T19:45:43.135Z,1.97
2019-01-02T19:48:10.604Z,2.37
2019-01-02T19:50:38.378Z,2.40
2019-01-02T19:53:06.538Z,2.33
2019-01-02T19:55:34.109Z,2.33
2019-01-02T19:58:01.737Z,2.40
2019-01-02T20:00:29.599Z,2.90
2019-01-02T20:02:57.574Z,2.83
2019-01-02T20:05:25.095Z,2.90
2019-01-02T20:07:52.758Z,1.90
2019-01-02T20:10:21.939Z,2.33
2019-01-02T20:12:50.141Z,1.70
2019-01-02T20:15:18.965Z,2.43
2019-01-02T20:17:49.875Z,2.67
2019-01-02T20:20:19.129Z,2.20
2019-01-02T20:22:46.896Z,2.10
2019-01-02T20:25:14.181Z,1.77
2019-01-02T20:27:42.667Z,2.00
2019-01-02T20:30:10.603Z,1.83
2019-01-02T20:32:37.824Z,1.30
2019-01-02T20:35:06.632Z,2.20
2019-01-02T20:37:34.034Z,2.00
2019-01-02T20:40:02.468Z,2.10
2019-01-02T20:42:31.201Z,2.03
2019-01-02T20:44:58.985Z,2.20
2019-01-02T20:47:26.448Z,1.60
2019-01-02T20:49:54.801Z,1.87
2019-01-02T20:52:22.909Z,1.70
2019-01-02T20:54:50.494Z,1.90
2019-01-02T20:57:19.047Z,1.80
2019-01-02T20:59:46.209Z,2.23
2019-01-02T21:02:13.833Z,2.10
2019-01-02T21:04:41.454Z,2.40
2019-01-02T21:07:13.120Z,6.63
2019-01-02T21:09:40.656Z,2.40
2019-01-02T21:12:09.157Z,2.30
2019-01-02T21:14:36.969Z,3.07
2019-01-02T21:17:04.475Z,2.33
2019-01-02T21:19:33.225Z,2.00
2019-01-02T21:22:01.462Z,2.97
2019-01-02T21:24:29.441Z,2.63
2019-01-02T21:26:56.895Z,2.80
2019-01-02T21:29:24.819Z,2.10
2019-01-02T21:31:52.229Z,3.03
2019-01-02T21:34:20.920Z,2.83
2019-01-02T21:36:49.457Z,4.77
2019-01-02T21:39:17.334Z,6.70
2019-01-02T21:41:45.695Z,7.67
2019-01-02T21:44:12.973Z,6.10
2019-01-02T21:46:40.369Z,5.57
2019-01-02T21:49:08.512Z,6.53
2019-01-02T21:51:36.212Z,5.60
2019-01-02T21:54:03.949Z,5.23
2019-01-02T21:56:31.979Z,4.83
2019-01-02T21:59:00.189Z,7.13
2019-01-02T22:01:28.215Z,5.90
2019-01-02T22:03:56.124Z,6.43
2019-01-02T22:06:24.502Z,8.13
2019-01-02T22:08:52.759Z,7.00
2019-01-02T22:11:21.021Z,7.07
2019-01-02T22:13:49.018Z,4.77
2019-01-02T22:16:16.785Z,3.50
2019-01-02T22:18:44.413Z,2.07
2019-01-02T22:21:11.774Z,2.37
2019-01-02T22:23:40.572Z,2.10
2019-01-02T22:26:08.314Z,1.60
2019-01-02T22:28:35.546Z,2.30
2019-01-02T22:31:02.907Z,2.23
2019-01-02T22:33:30.044Z,2.20
2019-01-02T22:35:58.477Z,2.47
2019-01-02T22:38:26.336Z,1.73
2019-01-02T22:40:54.224Z,1.90
2019-01-02T22:43:22.085Z,2.27
2019-01-02T22:45:50.203Z,1.80
2019-01-02T22:48:17.534Z,1.60
2019-01-02T22:50:45.632Z,1.60
2019-01-02T22:53:13.093Z,1.30
2019-01-02T22:55:40.378Z,1.93
2019-01-02T22:58:09.835Z,2.30
2019-01-02T23:00:56.032Z,1.77
2019-01-02T23:03:42.837Z,1.90
2019-01-02T23:06:38.611Z,1.90
2019-01-02T23:09:26.585Z,1.77
2019-01-02T23:12:13.916Z,1.90
2019-01-02T23:14:59.997Z,1.70
2019-01-02T23:17:59.593Z,1.63
2019-01-02T23:20:39.965Z,2.20
2019-01-02T23:23:27.065Z,2.70
2019-01-02T23:26:16.624Z,3.70
2019-01-02T23:29:13.097Z,3.43
2019-01-02T23:32:00.173Z,2.90
2019-01-02T23:34:56.218Z,2.57
2019-01-02T23:37:43.243Z,2.87
2019-01-02T23:40:29.110Z,3.40
2019-01-02T23:43:15.261Z,4.00
2019-01-02T23:46:08.301Z,2.77
2019-01-02T23:49:13.558Z,2.67
2019-01-02T23:52:06.629Z,3.37
2019-01-02T23:55:05.671Z,2.50
2019-01-02T23:58:04.670Z,1.93
